createdAt,value
2018-12-13T00:00:36.750Z,2.92
2018-12-13T00:01:36.795Z,2.81
2018-12-13T00:02:36.725Z,2.76
2018-12-13T00:03:36.715Z,2.74
2018-12-13T00:04:37.028Z,2.71
2018-12-13T00:05:36.700Z,2.68
2018-12-13T00:06:36.709Z,2.69
2018-12-13T00:07:36.734Z,2.59
2018-12-13T00:08:36.662Z,2.58
2018-12-13T00:09:36.695Z,2.51
2018-12-13T00:10:36.675Z,2.47
2018-12-13T00:11:36.628Z,2.50
2018-12-13T00:12:36.838Z,2.50
2018-12-13T00:13:36.633Z,2.50
2018-12-13T00:14:36.602Z,2.53
2018-12-13T00:15:36.584Z,2.45
2018-12-13T00:16:36.585Z,2.48
2018-12-13T00:17:36.708Z,2.53
2018-12-13T00:18:36.572Z,2.44
2018-12-13T00:19:36.563Z,2.50
2018-12-13T00:20:36.614Z,2.53
2018-12-13T00:21:36.546Z,2.41
2018-12-13T00:22:36.509Z,2.38
2018-12-13T00:23:36.529Z,2.38
2018-12-13T00:24:36.491Z,2.33
2018-12-13T00:25:36.485Z,2.40
2018-12-13T00:26:36.602Z,2.43
2018-12-13T00:27:36.714Z,2.30
2018-12-13T00:28:36.499Z,2.27
2018-12-13T00:29:36.493Z,2.19
2018-12-13T00:30:36.440Z,2.19
2018-12-13T00:31:36.444Z,2.26
2018-12-13T00:32:36.408Z,2.33
2018-12-13T00:33:36.438Z,2.37
2018-12-13T00:34:36.433Z,2.40
2018-12-13T00:35:36.408Z,2.50
2018-12-13T00:36:39.694Z,2.45
2018-12-13T00:37:36.351Z,2.51
2018-12-13T00:38:36.337Z,2.59
2018-12-13T00:39:36.355Z,2.59
2018-12-13T00:40:36.355Z,2.63
2018-12-13T00:41:36.307Z,2.50
2018-12-13T00:42:36.302Z,2.48
2018-12-13T00:43:36.296Z,2.53
2018-12-13T00:44:36.307Z,2.58
2018-12-13T00:45:36.262Z,2.55
2018-12-13T00:46:36.268Z,2.59
2018-12-13T00:47:36.423Z,2.61
2018-12-13T00:48:36.231Z,2.61
2018-12-13T00:49:36.231Z,2.66
2018-12-13T00:50:36.346Z,2.69
2018-12-13T00:51:36.197Z,2.73
2018-12-13T00:52:36.213Z,2.73
2018-12-13T00:53:36.177Z,2.74
2018-12-13T00:54:36.204Z,2.76
2018-12-13T00:55:36.154Z,2.68
2018-12-13T00:56:36.178Z,2.71
2018-12-13T00:57:36.135Z,2.73
2018-12-13T00:58:36.141Z,2.71
2018-12-13T00:59:36.112Z,2.74
2018-12-13T01:00:36.103Z,2.79
2018-12-13T01:01:36.119Z,2.71
2018-12-13T01:02:36.081Z,2.77
2018-12-13T01:03:36.068Z,2.68
2018-12-13T01:04:36.087Z,2.74
2018-12-13T01:05:36.044Z,2.69
2018-12-13T01:06:36.368Z,2.68
2018-12-13T01:07:36.034Z,2.65
2018-12-13T01:08:36.019Z,2.59
2018-12-13T01:09:36.006Z,2.59
2018-12-13T01:10:36.679Z,2.65
2018-12-13T01:11:36.005Z,2.48
2018-12-13T01:12:36.019Z,2.38
2018-12-13T01:13:35.969Z,2.38
2018-12-13T01:14:35.951Z,2.32
2018-12-13T01:15:35.939Z,2.20
2018-12-13T01:16:35.997Z,2.26
2018-12-13T01:17:35.919Z,2.18
2018-12-13T01:18:35.966Z,2.11
2018-12-13T01:19:35.904Z,2.04
2018-12-13T01:20:35.894Z,1.98
2018-12-13T01:21:35.880Z,2.05
2018-12-13T01:22:36.020Z,2.00
2018-12-13T01:23:35.880Z,1.89
2018-12-13T01:24:35.845Z,1.81
2018-12-13T01:25:35.833Z,1.75
2018-12-13T01:26:35.878Z,1.79
2018-12-13T01:27:36.147Z,1.71
2018-12-13T01:28:35.855Z,1.65
2018-12-13T01:29:35.805Z,1.57
2018-12-13T01:30:35.809Z,1.53
2018-12-13T01:31:35.806Z,1.53
2018-12-13T01:32:35.759Z,1.46
2018-12-13T01:33:35.806Z,1.38
2018-12-13T01:34:35.753Z,1.34
2018-12-13T01:35:35.764Z,1.36
2018-12-13T01:36:35.750Z,1.35
2018-12-13T01:37:35.708Z,1.18
2018-12-13T01:38:35.728Z,1.04
2018-12-13T01:39:35.727Z,0.98
2018-12-13T01:40:35.709Z,1.11
2018-12-13T01:41:35.666Z,1.02
2018-12-13T01:42:35.656Z,0.89
2018-12-13T01:43:35.643Z,0.78
2018-12-13T01:44:35.659Z,0.81
2018-12-13T01:45:35.621Z,0.77
2018-12-13T01:46:35.667Z,0.81
2018-12-13T01:47:35.602Z,0.80
2018-12-13T01:48:35.592Z,0.75
2018-12-13T01:49:35.639Z,0.77
2018-12-13T01:50:35.569Z,0.67
2018-12-13T01:51:35.557Z,0.74
2018-12-13T01:52:35.578Z,0.71
2018-12-13T01:53:35.563Z,0.67
2018-12-13T01:54:35.531Z,0.70
2018-12-13T01:55:35.537Z,0.64
2018-12-13T01:56:35.505Z,0.64
2018-12-13T01:57:35.504Z,0.57
2018-12-13T01:58:35.487Z,0.48
2018-12-13T01:59:35.509Z,0.44
2018-12-13T02:00:35.487Z,0.52
2018-12-13T02:01:35.457Z,0.48
2018-12-13T02:02:35.487Z,0.56
2018-12-13T02:03:35.430Z,0.51
2018-12-13T02:04:35.507Z,0.51
2018-12-13T02:05:35.511Z,0.57
2018-12-13T02:06:35.400Z,0.52
2018-12-13T02:07:35.393Z,0.53
2018-12-13T02:08:35.378Z,0.49
2018-12-13T02:09:35.369Z,0.43
2018-12-13T02:10:35.388Z,0.52
2018-12-13T02:11:35.429Z,0.40
2018-12-13T02:12:35.339Z,0.35
2018-12-13T02:13:35.425Z,0.26
2018-12-13T02:14:35.324Z,0.31
2018-12-13T02:15:35.320Z,0.28
2018-12-13T02:16:35.331Z,0.26
2018-12-13T02:17:35.295Z,0.30
2018-12-13T02:18:35.298Z,0.37
2018-12-13T02:19:35.315Z,0.35
2018-12-13T02:20:35.255Z,0.44
2018-12-13T02:21:35.295Z,0.48
2018-12-13T02:22:35.253Z,0.33
2018-12-13T02:23:35.217Z,0.28
2018-12-13T02:24:35.226Z,0.28
2018-12-13T02:25:35.226Z,0.19
2018-12-13T02:26:35.187Z,0.16
2018-12-13T02:27:35.202Z,0.19
2018-12-13T02:28:35.172Z,0.13
2018-12-13T02:29:35.188Z,-0.01
2018-12-13T02:30:35.147Z,-0.17
2018-12-13T02:31:35.141Z,-0.09
2018-12-13T02:32:35.150Z,0.04
2018-12-13T02:33:35.118Z,0.02
2018-12-13T02:34:35.102Z,-0.02
2018-12-13T02:35:35.119Z,-0.12
2018-12-13T02:36:35.082Z,-0.09
2018-12-13T02:37:35.102Z,-0.06
2018-12-13T02:38:35.075Z,-0.06
2018-12-13T02:39:35.051Z,-0.08
2018-12-13T02:40:35.038Z,-0.08
2018-12-13T02:41:35.052Z,-0.14
2018-12-13T02:42:35.021Z,-0.17
2018-12-13T02:43:35.034Z,-0.17
2018-12-13T02:44:35.025Z,-0.23
2018-12-13T02:45:34.986Z,-0.30
2018-12-13T02:46:34.981Z,-0.32
2018-12-13T02:47:35.002Z,-0.26
2018-12-13T02:48:34.972Z,-0.32
2018-12-13T02:49:34.967Z,-0.31
2018-12-13T02:50:34.929Z,-0.35
2018-12-13T02:51:34.926Z,-0.31
2018-12-13T02:52:34.909Z,-0.37
2018-12-13T02:53:34.911Z,-0.38
2018-12-13T02:54:34.950Z,-0.31
2018-12-13T02:55:34.875Z,-0.34
2018-12-13T02:56:34.875Z,-0.38
2018-12-13T02:57:34.858Z,-0.45
2018-12-13T02:58:34.843Z,-0.52
2018-12-13T02:59:34.922Z,-0.42
2018-12-13T03:00:34.827Z,-0.41
2018-12-13T03:01:34.882Z,-0.53
2018-12-13T03:02:34.803Z,-0.37
2018-12-13T03:03:34.791Z,-0.45
2018-12-13T03:04:34.809Z,-0.47
2018-12-13T03:05:34.795Z,-0.60
2018-12-13T03:06:34.757Z,-0.62
2018-12-13T03:07:34.769Z,-0.49
2018-12-13T03:08:34.739Z,-0.53
2018-12-13T03:09:34.762Z,-0.32
2018-12-13T03:10:34.749Z,-0.41
2018-12-13T03:11:34.733Z,-0.41
2018-12-13T03:12:34.697Z,-0.39
2018-12-13T03:13:34.718Z,-0.50
2018-12-13T03:14:34.733Z,-0.50
2018-12-13T03:15:34.660Z,-0.52
2018-12-13T03:16:34.679Z,-0.50
2018-12-13T03:17:34.693Z,-0.53
2018-12-13T03:18:34.632Z,-0.55
2018-12-13T03:19:34.616Z,-0.38
2018-12-13T03:20:34.606Z,-0.50
2018-12-13T03:21:34.672Z,-0.55
2018-12-13T03:22:34.657Z,-0.56
2018-12-13T03:23:34.605Z,-0.52
2018-12-13T03:24:34.568Z,-0.53
2018-12-13T03:25:34.571Z,-0.67
2018-12-13T03:26:34.599Z,-0.71
2018-12-13T03:27:34.533Z,-0.73
2018-12-13T03:28:34.561Z,-0.74
2018-12-13T03:29:34.622Z,-0.80
2018-12-13T03:30:34.511Z,-0.80
2018-12-13T03:31:34.513Z,-0.81
2018-12-13T03:32:34.528Z,-0.85
2018-12-13T03:33:34.465Z,-0.97
2018-12-13T03:34:34.482Z,-0.92
2018-12-13T03:35:34.444Z,-1.07
2018-12-13T03:36:34.433Z,-0.97
2018-12-13T03:37:34.425Z,-1.05
2018-12-13T03:38:34.443Z,-1.14
2018-12-13T03:39:34.403Z,-1.13
2018-12-13T03:40:34.408Z,-1.11
2018-12-13T03:41:34.380Z,-1.10
2018-12-13T03:42:34.391Z,-1.07
2018-12-13T03:43:34.384Z,-1.11
2018-12-13T03:44:34.349Z,-1.02
2018-12-13T03:45:34.358Z,-0.96
2018-12-13T03:46:34.385Z,-0.93
2018-12-13T03:47:34.319Z,-1.10
2018-12-13T03:48:34.337Z,-0.93
2018-12-13T03:49:34.305Z,-1.05
2018-12-13T03:50:34.326Z,-1.07
2018-12-13T03:51:34.325Z,-1.07
2018-12-13T03:52:34.327Z,-1.13
2018-12-13T03:53:34.299Z,-1.07
2018-12-13T03:54:34.245Z,-0.96
2018-12-13T03:55:34.237Z,-1.05
2018-12-13T03:56:34.227Z,-0.97
2018-12-13T03:57:34.219Z,-1.03
2018-12-13T03:58:34.211Z,-1.20
2018-12-13T03:59:34.270Z,-1.29
2018-12-13T04:00:34.205Z,-1.29
2018-12-13T04:01:34.170Z,-1.14
2018-12-13T04:02:34.163Z,-1.11
2018-12-13T04:03:34.150Z,-1.13
2018-12-13T04:04:34.138Z,-1.07
2018-12-13T04:05:34.167Z,-1.20
2018-12-13T04:06:34.151Z,-1.10
2018-12-13T04:07:34.122Z,-1.13
2018-12-13T04:08:34.099Z,-1.10
2018-12-13T04:09:34.089Z,-1.21
2018-12-13T04:10:34.102Z,-1.11
2018-12-13T04:11:34.071Z,-1.15
2018-12-13T04:12:34.090Z,-1.10
2018-12-13T04:13:34.046Z,-1.15
2018-12-13T04:14:34.033Z,-1.14
2018-12-13T04:15:34.069Z,-1.18
2018-12-13T04:16:34.014Z,-1.17
2018-12-13T04:17:34.008Z,-1.15
2018-12-13T04:18:34.048Z,-1.15
2018-12-13T04:19:33.986Z,-1.26
2018-12-13T04:20:34.005Z,-1.29
2018-12-13T04:21:34.029Z,-1.20
2018-12-13T04:22:33.953Z,-1.26
2018-12-13T04:23:33.957Z,-1.21
2018-12-13T04:24:33.965Z,-1.20
2018-12-13T04:25:33.922Z,-1.18
2018-12-13T04:26:33.949Z,-1.18
2018-12-13T04:27:33.906Z,-1.13
2018-12-13T04:28:33.907Z,-1.08
2018-12-13T04:29:33.886Z,-0.92
2018-12-13T04:30:33.915Z,-0.85
2018-12-13T04:31:33.862Z,-0.83
2018-12-13T04:32:33.880Z,-0.81
2018-12-13T04:33:33.843Z,-0.83
2018-12-13T04:34:33.828Z,-0.80
2018-12-13T04:35:33.818Z,-0.85
2018-12-13T04:36:33.813Z,-0.89
2018-12-13T04:37:35.376Z,-0.95
2018-12-13T04:38:33.788Z,-0.86
2018-12-13T04:39:33.776Z,-0.85
2018-12-13T04:40:33.768Z,-0.74
2018-12-13T04:41:33.765Z,-0.83
2018-12-13T04:42:33.781Z,-0.85
2018-12-13T04:43:33.744Z,-0.89
2018-12-13T04:44:33.732Z,-0.93
2018-12-13T04:45:33.738Z,-0.95
2018-12-13T04:46:33.742Z,-0.99
2018-12-13T04:47:33.724Z,-1.07
2018-12-13T04:48:33.735Z,-1.14
2018-12-13T04:49:33.678Z,-1.11
2018-12-13T04:50:33.666Z,-1.05
2018-12-13T04:51:33.695Z,-1.07
2018-12-13T04:52:33.669Z,-1.02
2018-12-13T04:53:33.634Z,-1.08
2018-12-13T04:54:33.619Z,-1.02
2018-12-13T04:55:33.611Z,-0.96
2018-12-13T04:56:33.625Z,-1.00
2018-12-13T04:57:33.588Z,-0.93
2018-12-13T04:58:33.602Z,-0.86
2018-12-13T04:59:33.568Z,-0.85
2018-12-13T05:00:33.557Z,-0.73
2018-12-13T05:01:33.570Z,-0.78
2018-12-13T05:02:33.568Z,-0.73
2018-12-13T05:03:33.562Z,-0.55
2018-12-13T05:04:33.528Z,-0.62
2018-12-13T05:05:33.509Z,-0.58
2018-12-13T05:06:33.543Z,-0.56
2018-12-13T05:07:33.484Z,-0.63
2018-12-13T05:08:33.506Z,-0.63
2018-12-13T05:09:33.487Z,-0.62
2018-12-13T05:10:33.454Z,-0.63
2018-12-13T05:11:33.444Z,-0.62
2018-12-13T05:12:33.435Z,-0.59
2018-12-13T05:13:33.424Z,-0.63
2018-12-13T05:14:33.482Z,-0.67
2018-12-13T05:15:33.409Z,-0.65
2018-12-13T05:16:33.389Z,-0.68
2018-12-13T05:17:33.381Z,-0.68
2018-12-13T05:18:33.378Z,-0.67
2018-12-13T05:19:33.410Z,-0.65
2018-12-13T05:20:33.392Z,-0.63
2018-12-13T05:21:33.335Z,-0.77
2018-12-13T05:22:33.329Z,-0.70
2018-12-13T05:23:33.320Z,-0.83
2018-12-13T05:24:33.392Z,-0.93
2018-12-13T05:25:33.301Z,-0.89
2018-12-13T05:26:33.287Z,-0.92
2018-12-13T05:27:33.311Z,-0.89
2018-12-13T05:28:33.268Z,-0.99
2018-12-13T05:29:33.257Z,-0.90
2018-12-13T05:30:33.281Z,-0.93
2018-12-13T05:31:33.233Z,-0.89
2018-12-13T05:32:33.223Z,-1.02
2018-12-13T05:33:33.262Z,-0.99
2018-12-13T05:34:33.266Z,-1.03
2018-12-13T05:35:33.189Z,-1.07
2018-12-13T05:36:33.219Z,-1.14
2018-12-13T05:37:33.184Z,-1.03
2018-12-13T05:38:33.174Z,-1.10
2018-12-13T05:39:33.155Z,-0.96
2018-12-13T05:40:33.183Z,-0.97
2018-12-13T05:41:33.158Z,-1.05
2018-12-13T05:42:33.138Z,-0.99
2018-12-13T05:43:33.117Z,-0.99
2018-12-13T05:44:33.104Z,-1.05
2018-12-13T05:45:33.103Z,-1.08
2018-12-13T05:46:33.114Z,-1.05
2018-12-13T05:47:33.086Z,-1.03
2018-12-13T05:48:33.109Z,-0.93
2018-12-13T05:49:33.064Z,-1.10
2018-12-13T05:50:33.037Z,-0.90
2018-12-13T05:51:33.061Z,-1.13
2018-12-13T05:52:33.014Z,-1.10
2018-12-13T05:53:33.004Z,-1.15
2018-12-13T05:54:33.008Z,-1.11
2018-12-13T05:55:33.028Z,-1.07
2018-12-13T05:56:32.973Z,-1.15
2018-12-13T05:57:33.005Z,-1.14
2018-12-13T05:58:32.950Z,-1.10
2018-12-13T05:59:32.945Z,-1.00
2018-12-13T06:00:32.937Z,-0.90
2018-12-13T06:01:32.988Z,-0.81
2018-12-13T06:02:32.924Z,-0.81
2018-12-13T06:03:32.924Z,-0.68
2018-12-13T06:04:32.892Z,-0.71
2018-12-13T06:05:32.888Z,-0.67
2018-12-13T06:06:32.871Z,-0.65
2018-12-13T06:07:32.926Z,-0.65
2018-12-13T06:08:32.873Z,-0.63
2018-12-13T06:09:32.837Z,-0.65
2018-12-13T06:10:32.836Z,-0.71
2018-12-13T06:11:32.819Z,-0.67
2018-12-13T06:12:32.809Z,-0.81
2018-12-13T06:13:32.853Z,-0.74
2018-12-13T06:14:32.785Z,-0.73
2018-12-13T06:15:32.771Z,-0.81
2018-12-13T06:16:32.766Z,-0.71
2018-12-13T06:17:32.759Z,-0.76
2018-12-13T06:18:32.770Z,-0.78
2018-12-13T06:19:32.746Z,-0.74
2018-12-13T06:20:32.753Z,-0.83
2018-12-13T06:21:36.832Z,-0.83
2018-12-13T06:22:32.700Z,-0.85
2018-12-13T06:23:32.741Z,-0.86
2018-12-13T06:24:32.680Z,-0.86
2018-12-13T06:25:32.671Z,-0.95
2018-12-13T06:26:32.687Z,-0.86
2018-12-13T06:27:32.649Z,-0.83
2018-12-13T06:28:32.670Z,-0.90
2018-12-13T06:29:32.628Z,-0.90
2018-12-13T06:30:32.616Z,-0.86
2018-12-13T06:31:32.609Z,-0.92
2018-12-13T06:32:32.686Z,-0.89
2018-12-13T06:33:32.621Z,-0.85
2018-12-13T06:34:32.617Z,-0.80
2018-12-13T06:35:32.565Z,-0.74
2018-12-13T06:36:32.562Z,-0.73
2018-12-13T06:37:32.582Z,-0.56
2018-12-13T06:38:32.541Z,-0.56
2018-12-13T06:39:32.526Z,-0.53
2018-12-13T06:40:32.619Z,-0.56
2018-12-13T06:41:32.505Z,-0.52
2018-12-13T06:42:32.490Z,-0.34
2018-12-13T06:43:32.504Z,-0.21
2018-12-13T06:44:32.487Z,-0.23
2018-12-13T06:45:32.515Z,-0.09
2018-12-13T06:46:32.456Z,-0.13
2018-12-13T06:47:32.503Z,-0.08
2018-12-13T06:48:32.430Z,-0.09
2018-12-13T06:49:32.416Z,-0.08
2018-12-13T06:50:32.432Z,-0.12
2018-12-13T06:51:32.408Z,-0.06
2018-12-13T06:52:32.469Z,-0.08
2018-12-13T06:53:32.486Z,-0.19
2018-12-13T06:54:32.365Z,-0.01
2018-12-13T06:55:32.387Z,-0.05
2018-12-13T06:56:32.352Z,-0.09
2018-12-13T06:57:32.386Z,-0.12
2018-12-13T06:58:32.324Z,-0.16
2018-12-13T06:59:32.315Z,-0.14
2018-12-13T07:00:32.358Z,-0.06
2018-12-13T07:01:32.331Z,-0.16
2018-12-13T07:02:32.296Z,-0.08
2018-12-13T07:03:32.274Z,-0.01
2018-12-13T07:04:32.256Z,-0.14
2018-12-13T07:05:32.293Z,-0.14
2018-12-13T07:06:32.258Z,-0.08
2018-12-13T07:07:32.259Z,-0.14
2018-12-13T07:08:32.218Z,-0.17
2018-12-13T07:09:32.218Z,-0.17
2018-12-13T07:10:32.199Z,-0.19
2018-12-13T07:11:32.234Z,-0.23
2018-12-13T07:12:32.254Z,-0.34
2018-12-13T07:13:32.167Z,-0.26
2018-12-13T07:14:32.166Z,-0.21
2018-12-13T07:15:32.166Z,-0.31
2018-12-13T07:16:32.162Z,-0.27
2018-12-13T07:17:32.155Z,-0.41
2018-12-13T07:18:32.109Z,-0.37
2018-12-13T07:19:32.132Z,-0.32
2018-12-13T07:20:32.093Z,-0.39
2018-12-13T07:21:32.122Z,-0.49
2018-12-13T07:22:32.074Z,-0.45
2018-12-13T07:23:32.086Z,-0.41
2018-12-13T07:24:32.052Z,-0.60
2018-12-13T07:25:32.068Z,-0.60
2018-12-13T07:26:32.026Z,-0.52
2018-12-13T07:27:32.121Z,-0.60
2018-12-13T07:28:32.051Z,-0.65
2018-12-13T07:29:31.998Z,-0.70
2018-12-13T07:30:31.989Z,-0.67
2018-12-13T07:31:31.971Z,-0.80
2018-12-13T07:32:31.964Z,-0.78
2018-12-13T07:33:31.988Z,-0.68
2018-12-13T07:34:31.981Z,-0.74
2018-12-13T07:35:31.943Z,-0.77
2018-12-13T07:36:31.919Z,-0.78
2018-12-13T07:37:31.906Z,-0.74
2018-12-13T07:38:31.903Z,-0.76
2018-12-13T07:39:31.969Z,-0.80
2018-12-13T07:40:31.912Z,-0.83
2018-12-13T07:41:31.863Z,-0.78
2018-12-13T07:42:31.863Z,-0.83
2018-12-13T07:43:31.841Z,-0.85
2018-12-13T07:44:31.877Z,-0.86
2018-12-13T07:45:31.920Z,-0.90
2018-12-13T07:46:31.814Z,-0.85
2018-12-13T07:47:31.811Z,-0.90
2018-12-13T07:48:31.797Z,-0.81
2018-12-13T07:49:31.793Z,-0.78
2018-12-13T07:50:31.796Z,-0.67
2018-12-13T07:51:31.830Z,-0.58
2018-12-13T07:52:31.753Z,-0.37
2018-12-13T07:53:31.749Z,-0.34
2018-12-13T07:54:31.729Z,-0.23
2018-12-13T07:55:31.787Z,-0.23
2018-12-13T07:56:31.717Z,-0.20
2018-12-13T07:57:31.751Z,-0.26
2018-12-13T07:58:31.698Z,-0.13
2018-12-13T07:59:31.763Z,-0.05
2018-12-13T08:00:31.780Z,-0.05
2018-12-13T08:01:32.611Z,0.19
2018-12-13T08:02:31.675Z,0.12
2018-12-13T08:03:31.638Z,0.20
2018-12-13T08:04:31.623Z,0.17
2018-12-13T08:05:31.665Z,0.17
2018-12-13T08:06:31.602Z,0.17
2018-12-13T08:07:31.595Z,0.25
2018-12-13T08:08:31.596Z,0.23
2018-12-13T08:09:31.569Z,0.28
2018-12-13T08:10:31.618Z,0.34
2018-12-13T08:11:31.547Z,0.45
2018-12-13T08:12:31.535Z,0.49
2018-12-13T08:13:31.526Z,0.52
2018-12-13T08:14:31.556Z,0.59
2018-12-13T08:15:31.507Z,0.56
2018-12-13T08:16:31.518Z,0.52
2018-12-13T08:17:31.489Z,0.56
2018-12-13T08:18:31.472Z,0.53
2018-12-13T08:19:31.460Z,0.56
2018-12-13T08:20:31.517Z,0.43
2018-12-13T08:21:31.446Z,0.44
2018-12-13T08:22:31.431Z,0.45
2018-12-13T08:23:31.432Z,0.34
2018-12-13T08:24:31.405Z,0.48
2018-12-13T08:25:31.484Z,0.49
2018-12-13T08:26:31.406Z,0.45
2018-12-13T08:27:31.373Z,0.59
2018-12-13T08:28:31.448Z,0.59
2018-12-13T08:29:31.351Z,0.63
2018-12-13T08:30:31.380Z,0.70
2018-12-13T08:31:31.380Z,0.68
2018-12-13T08:32:31.325Z,0.74
2018-12-13T08:33:31.317Z,0.84
2018-12-13T08:34:31.302Z,0.74
2018-12-13T08:35:31.333Z,0.82
2018-12-13T08:36:31.340Z,0.86
2018-12-13T08:37:31.272Z,0.89
2018-12-13T08:38:31.278Z,0.92
2018-12-13T08:39:31.254Z,0.95
2018-12-13T08:40:31.237Z,0.96
2018-12-13T08:41:31.355Z,0.89
2018-12-13T08:42:31.254Z,0.89
2018-12-13T08:43:31.203Z,0.89
2018-12-13T08:44:31.192Z,0.93
2018-12-13T08:45:31.246Z,0.92
2018-12-13T08:46:36.457Z,0.92
2018-12-13T08:47:32.170Z,0.96
2018-12-13T08:48:31.161Z,0.92
2018-12-13T08:49:31.139Z,0.96
2018-12-13T08:50:31.200Z,1.04
2018-12-13T08:51:31.117Z,1.07
2018-12-13T08:52:31.116Z,1.07
2018-12-13T08:53:31.102Z,1.08
2018-12-13T08:54:31.082Z,1.13
2018-12-13T08:55:31.075Z,1.10
2018-12-13T08:56:31.194Z,1.13
2018-12-13T08:57:31.050Z,1.08
2018-12-13T08:58:31.066Z,1.10
2018-12-13T08:59:31.034Z,1.25
2018-12-13T09:00:31.045Z,1.11
2018-12-13T09:01:31.012Z,1.21
2018-12-13T09:02:31.007Z,1.28
2018-12-13T09:03:30.988Z,1.28
2018-12-13T09:04:30.978Z,1.29
2018-12-13T09:05:30.998Z,1.39
2018-12-13T09:06:30.958Z,1.32
2018-12-13T09:07:30.948Z,1.35
2018-12-13T09:08:33.708Z,1.31
2018-12-13T09:09:31.811Z,1.34
2018-12-13T09:10:30.915Z,1.29
2018-12-13T09:11:30.965Z,1.34
2018-12-13T09:12:30.926Z,1.35
2018-12-13T09:13:30.883Z,1.38
2018-12-13T09:14:30.871Z,1.42
2018-12-13T09:15:30.902Z,1.36
2018-12-13T09:16:31.648Z,1.44
2018-12-13T09:17:30.839Z,1.42
2018-12-13T09:18:30.849Z,1.32
2018-12-13T09:19:30.821Z,1.44
2018-12-13T09:20:30.806Z,1.44
2018-12-13T09:21:30.841Z,1.44
2018-12-13T09:22:30.811Z,1.49
2018-12-13T09:23:30.771Z,1.53
2018-12-13T09:24:30.799Z,1.56
2018-12-13T09:25:30.749Z,1.57
2018-12-13T09:26:30.744Z,1.47
2018-12-13T09:27:30.760Z,1.60
2018-12-13T09:28:30.742Z,1.52
2018-12-13T09:29:30.708Z,1.49
2018-12-13T09:30:30.699Z,1.56
2018-12-13T09:31:30.689Z,1.52
2018-12-13T09:32:30.689Z,1.53
2018-12-13T09:33:30.689Z,1.47
2018-12-13T09:34:30.659Z,1.50
2018-12-13T09:35:30.643Z,1.61
2018-12-13T09:36:30.633Z,1.65
2018-12-13T09:37:30.624Z,1.61
2018-12-13T09:38:30.678Z,1.53
2018-12-13T09:39:30.604Z,1.54
2018-12-13T09:40:30.597Z,1.54
2018-12-13T09:41:30.578Z,1.50
2018-12-13T09:42:30.571Z,1.54
2018-12-13T09:43:30.596Z,1.52
2018-12-13T09:44:30.606Z,1.49
2018-12-13T09:45:30.551Z,1.57
2018-12-13T09:46:30.549Z,1.49
2018-12-13T09:47:30.522Z,1.52
2018-12-13T09:48:30.514Z,1.54
2018-12-13T09:49:30.520Z,1.61
2018-12-13T09:50:30.516Z,1.57
2018-12-13T09:51:30.472Z,1.67
2018-12-13T09:52:30.463Z,1.72
2018-12-13T09:53:30.450Z,1.64
2018-12-13T09:54:30.483Z,1.77
2018-12-13T09:55:30.433Z,1.75
2018-12-13T09:56:30.450Z,1.77
2018-12-13T09:57:30.448Z,1.88
2018-12-13T09:58:30.399Z,2.00
2018-12-13T09:59:30.428Z,1.95
2018-12-13T10:00:30.385Z,2.00
2018-12-13T10:01:30.370Z,1.85
2018-12-13T10:02:30.362Z,1.88
2018-12-13T10:03:30.354Z,2.00
2018-12-13T10:04:30.369Z,1.95
2018-12-13T10:05:30.325Z,1.95
2018-12-13T10:06:30.318Z,2.01
2018-12-13T10:07:30.327Z,2.05
2018-12-13T10:08:30.297Z,2.02
2018-12-13T10:09:30.301Z,2.14
2018-12-13T10:10:30.314Z,2.05
2018-12-13T10:11:30.268Z,2.12
2018-12-13T10:12:30.272Z,2.04
2018-12-13T10:13:30.240Z,2.09
2018-12-13T10:14:30.229Z,2.14
2018-12-13T10:15:32.164Z,2.08
2018-12-13T10:16:30.230Z,2.09
2018-12-13T10:17:30.196Z,2.08
2018-12-13T10:18:30.204Z,2.04
2018-12-13T10:19:30.176Z,2.08
2018-12-13T10:20:30.162Z,2.05
2018-12-13T10:21:30.182Z,2.04
2018-12-13T10:22:30.151Z,2.02
2018-12-13T10:23:30.159Z,1.98
2018-12-13T10:24:30.155Z,2.05
2018-12-13T10:25:30.110Z,2.12
2018-12-13T10:26:30.157Z,2.09
2018-12-13T10:27:30.088Z,2.09
2018-12-13T10:28:30.079Z,2.09
2018-12-13T10:29:30.070Z,2.22
2018-12-13T10:30:30.102Z,2.23
2018-12-13T10:31:30.084Z,2.22
2018-12-13T10:32:30.054Z,2.22
2018-12-13T10:33:30.040Z,2.36
2018-12-13T10:34:30.015Z,2.23
2018-12-13T10:35:30.025Z,2.29
2018-12-13T10:36:29.995Z,2.22
2018-12-13T10:37:30.008Z,2.29
2018-12-13T10:38:29.983Z,2.32
2018-12-13T10:39:29.975Z,2.33
2018-12-13T10:40:29.980Z,2.33
2018-12-13T10:41:29.948Z,2.27
2018-12-13T10:42:29.960Z,2.23
2018-12-13T10:43:29.928Z,2.27
2018-12-13T10:44:29.934Z,2.23
2018-12-13T10:45:29.897Z,2.05
2018-12-13T10:46:29.899Z,2.22
2018-12-13T10:47:29.876Z,2.20
2018-12-13T10:48:29.897Z,2.26
2018-12-13T10:49:29.855Z,2.22
2018-12-13T10:50:29.914Z,2.25
2018-12-13T10:51:29.875Z,2.25
2018-12-13T10:52:29.828Z,2.32
2018-12-13T10:53:29.872Z,2.38
2018-12-13T10:54:29.803Z,2.36
2018-12-13T10:55:29.792Z,2.38
2018-12-13T10:56:29.786Z,2.38
2018-12-13T10:57:29.770Z,2.38
2018-12-13T10:58:29.761Z,2.44
2018-12-13T10:59:29.790Z,2.40
2018-12-13T11:00:29.741Z,2.47
2018-12-13T11:01:29.736Z,2.47
2018-12-13T11:02:29.729Z,2.36
2018-12-13T11:03:29.717Z,2.44
2018-12-13T11:04:29.732Z,2.41
2018-12-13T11:05:29.687Z,2.44
2018-12-13T11:06:29.676Z,2.53
2018-12-13T11:07:29.666Z,2.55
2018-12-13T11:08:29.655Z,2.51
2018-12-13T11:09:29.715Z,2.47
2018-12-13T11:10:29.631Z,2.47
2018-12-13T11:11:29.716Z,2.55
2018-12-13T11:12:29.611Z,2.45
2018-12-13T11:13:29.602Z,2.43
2018-12-13T11:14:29.620Z,2.51
2018-12-13T11:15:29.628Z,2.56
2018-12-13T11:16:29.568Z,2.51
2018-12-13T11:17:29.590Z,2.50
2018-12-13T11:18:29.547Z,2.50
2018-12-13T11:19:29.537Z,2.53
2018-12-13T11:20:29.527Z,2.50
2018-12-13T11:21:29.556Z,2.47
2018-12-13T11:22:29.519Z,2.45
2018-12-13T11:23:29.497Z,2.48
2018-12-13T11:24:29.483Z,2.50
2018-12-13T11:25:29.474Z,2.43
2018-12-13T11:26:29.494Z,2.45
2018-12-13T11:27:29.451Z,2.47
2018-12-13T11:28:29.456Z,2.41
2018-12-13T11:29:29.435Z,2.50
2018-12-13T11:30:29.417Z,2.47
2018-12-13T11:31:29.433Z,2.53
2018-12-13T11:32:29.398Z,2.45
2018-12-13T11:33:29.387Z,2.48
2018-12-13T11:34:29.404Z,2.48
2018-12-13T11:35:29.367Z,2.50
2018-12-13T11:36:29.416Z,2.50
2018-12-13T11:37:29.346Z,2.50
2018-12-13T11:38:29.332Z,2.45
2018-12-13T11:39:29.383Z,2.55
2018-12-13T11:40:29.322Z,2.56
2018-12-13T11:41:29.327Z,2.62
2018-12-13T11:42:29.329Z,2.59
2018-12-13T11:43:29.283Z,2.55
2018-12-13T11:44:29.299Z,2.62
2018-12-13T11:45:29.259Z,2.59
2018-12-13T11:46:29.253Z,2.58
2018-12-13T11:47:29.289Z,2.76
2018-12-13T11:48:29.226Z,2.73
2018-12-13T11:49:29.246Z,2.63
2018-12-13T11:50:29.212Z,2.80
2018-12-13T11:51:29.197Z,2.81
2018-12-13T11:52:29.251Z,2.83
2018-12-13T11:53:29.170Z,2.86
2018-12-13T11:54:29.161Z,2.87
2018-12-13T11:55:29.151Z,2.86
2018-12-13T11:56:29.143Z,2.87
2018-12-13T11:57:29.223Z,2.89
2018-12-13T11:58:29.142Z,2.90
2018-12-13T11:59:29.111Z,2.87
2018-12-13T12:00:29.141Z,2.86
2018-12-13T12:01:29.092Z,2.99
2018-12-13T12:02:29.096Z,2.98
2018-12-13T12:03:30.772Z,3.04
2018-12-13T12:04:29.130Z,2.99
2018-12-13T12:05:29.048Z,2.99
2018-12-13T12:06:29.034Z,2.94
2018-12-13T12:07:29.064Z,2.86
2018-12-13T12:08:29.013Z,2.89
2018-12-13T12:09:29.026Z,2.98
2018-12-13T12:10:28.990Z,2.89
2018-12-13T12:11:28.985Z,2.90
2018-12-13T12:12:28.987Z,2.90
2018-12-13T12:13:29.002Z,2.89
2018-12-13T12:14:28.988Z,2.86
2018-12-13T12:15:28.937Z,2.83
2018-12-13T12:16:28.925Z,2.86
2018-12-13T12:17:28.921Z,2.86
2018-12-13T12:18:28.904Z,2.90
2018-12-13T12:19:28.954Z,2.89
2018-12-13T12:20:28.921Z,2.90
2018-12-13T12:21:28.872Z,2.90
2018-12-13T12:22:28.863Z,3.02
2018-12-13T12:23:28.852Z,2.89
2018-12-13T12:24:28.873Z,2.98
2018-12-13T12:25:28.868Z,3.01
2018-12-13T12:26:28.825Z,3.04
2018-12-13T12:27:28.807Z,3.07
2018-12-13T12:28:28.801Z,2.99
2018-12-13T12:29:28.790Z,3.04
2018-12-13T12:30:28.827Z,2.98
2018-12-13T12:31:28.798Z,2.87
2018-12-13T12:32:28.757Z,2.99
2018-12-13T12:33:28.745Z,2.99
2018-12-13T12:34:28.759Z,3.04
2018-12-13T12:35:28.733Z,3.02
2018-12-13T12:36:28.712Z,2.94
2018-12-13T12:37:28.718Z,2.97
2018-12-13T12:38:28.693Z,2.98
2018-12-13T12:39:28.737Z,2.90
2018-12-13T12:40:28.668Z,3.04
2018-12-13T12:41:28.658Z,3.10
2018-12-13T12:42:28.650Z,2.98
2018-12-13T12:43:28.670Z,2.90
2018-12-13T12:44:28.628Z,3.01
2018-12-13T12:45:28.664Z,3.04
2018-12-13T12:46:28.608Z,3.07
2018-12-13T12:47:28.596Z,3.08
2018-12-13T12:48:28.592Z,3.13
2018-12-13T12:49:28.590Z,3.13
2018-12-13T12:50:28.586Z,3.20
2018-12-13T12:51:29.608Z,3.20
2018-12-13T12:52:28.544Z,3.30
2018-12-13T12:53:28.532Z,3.37
2018-12-13T12:54:28.534Z,3.95
2018-12-13T12:55:28.667Z,4.68
2018-12-13T12:56:28.508Z,5.40
2018-12-13T12:57:28.490Z,5.81
2018-12-13T12:58:28.484Z,6.33
2018-12-13T12:59:28.469Z,6.75
2018-12-13T13:00:28.486Z,7.08
2018-12-13T13:01:28.476Z,7.29
2018-12-13T13:02:28.444Z,7.55
2018-12-13T13:03:28.425Z,7.71
2018-12-13T13:04:28.417Z,7.96
2018-12-13T13:05:28.402Z,7.96
2018-12-13T13:06:28.426Z,7.79
2018-12-13T13:07:28.414Z,7.81